East Monbo, North Carolina
Current Conditions -  °F | °C
As of 1:35 PM on Thursday 27 Nov 2014 (Local Time) from KSVH Reporting Station
Overcast Overcast  
Wind Chill: 45°   Ceiling: 4800
Heat Index: 49°   Visibility: 10mi
Dew Point: 32°   Wind: 10mph
Humidity: 52%   Direction: 300°WNW
Pressure: 30.09"   Gusts: NA
Location:  35.8306°N, 80.9003°W
Report Text: KSVH 271835Z AUTO 30009KT 10SM BKN048 OVC060 10/00 A3009 RMK AO2 T00970002
Loading
Personal Weather Stations






























Interactive Weather Map New forecast layout! Learn more

10-Day Weather Forecast

Advertisements
Track Severe Weather on mobile